sensor_id;sensor_type;location;lat;lon;timestamp;P1;durP1;ratioP1;P2;durP2;ratioP2
77400;SDS011;74775;45.476;11.016;2023-12-20T00:00:03;5.00;;;2.80;;
77400;SDS011;74775;45.476;11.016;2023-12-20T00:05:13;5.90;;;3.30;;
77400;SDS011;74775;45.476;11.016;2023-12-20T00:07:40;7.00;;;3.60;;
77400;SDS011;74775;45.476;11.016;2023-12-20T00:10:08;5.70;;;3.10;;
77400;SDS011;74775;45.476;11.016;2023-12-20T00:12:35;6.70;;;3.70;;
77400;SDS011;74775;45.476;11.016;2023-12-20T00:15:15;6.10;;;3.30;;
77400;SDS011;74775;45.476;11.016;2023-12-20T00:17:43;6.60;;;3.70;;
77400;SDS011;74775;45.476;11.016;2023-12-20T00:20:11;6.90;;;3.60;;
77400;SDS011;74775;45.476;11.016;2023-12-20T00:22:38;9.00;;;3.50;;
77400;SDS011;74775;45.476;11.016;2023-12-20T00:25:06;7.70;;;4.00;;
77400;SDS011;74775;45.476;11.016;2023-12-20T00:27:45;7.60;;;4.00;;
77400;SDS011;74775;45.476;11.016;2023-12-20T00:30:15;8.00;;;3.60;;
77400;SDS011;74775;45.476;11.016;2023-12-20T00:32:42;7.60;;;3.80;;
77400;SDS011;74775;45.476;11.016;2023-12-20T00:35:13;6.00;;;3.30;;
77400;SDS011;74775;45.476;11.016;2023-12-20T00:37:41;8.20;;;3.90;;
77400;SDS011;74775;45.476;11.016;2023-12-20T00:40:13;8.10;;;3.30;;
77400;SDS011;74775;45.476;11.016;2023-12-20T00:42:44;6.80;;;3.90;;
77400;SDS011;74775;45.476;11.016;2023-12-20T00:45:13;6.00;;;3.70;;
77400;SDS011;74775;45.476;11.016;2023-12-20T00:47:41;5.80;;;3.10;;
77400;SDS011;74775;45.476;11.016;2023-12-20T00:50:09;6.00;;;3.30;;
77400;SDS011;74775;45.476;11.016;2023-12-20T00:52:36;6.90;;;3.10;;
77400;SDS011;74775;45.476;11.016;2023-12-20T00:55:05;6.40;;;3.40;;
77400;SDS011;74775;45.476;11.016;2023-12-20T00:57:36;4.20;;;2.80;;
77400;SDS011;74775;45.476;11.016;2023-12-20T01:00:03;7.50;;;3.20;;
77400;SDS011;74775;45.476;11.016;2023-12-20T01:02:36;5.80;;;3.20;;
77400;SDS011;74775;45.476;11.016;2023-12-20T01:05:09;6.50;;;3.00;;
77400;SDS011;74775;45.476;11.016;2023-12-20T01:07:36;5.60;;;3.00;;
77400;SDS011;74775;45.476;11.016;2023-12-20T01:10:03;7.50;;;3.70;;
77400;SDS011;74775;45.476;11.016;2023-12-20T01:12:30;6.30;;;3.30;;
77400;SDS011;74775;45.476;11.016;2023-12-20T01:14:57;6.90;;;3.30;;
77400;SDS011;74775;45.476;11.016;2023-12-20T01:17:25;11.30;;;3.70;;
77400;SDS011;74775;45.476;11.016;2023-12-20T01:19:52;6.70;;;3.30;;
77400;SDS011;74775;45.476;11.016;2023-12-20T01:22:22;8.40;;;3.70;;
77400;SDS011;74775;45.476;11.016;2023-12-20T01:24:49;7.20;;;4.00;;
77400;SDS011;74775;45.476;11.016;2023-12-20T01:27:15;7.00;;;4.00;;
77400;SDS011;74775;45.476;11.016;2023-12-20T01:29:48;7.80;;;3.90;;
77400;SDS011;74775;45.476;11.016;2023-12-20T01:32:20;7.50;;;3.90;;
77400;SDS011;74775;45.476;11.016;2023-12-20T01:34:50;6.20;;;3.50;;
77400;SDS011;74775;45.476;11.016;2023-12-20T01:37:17;6.10;;;3.40;;
77400;SDS011;74775;45.476;11.016;2023-12-20T01:39:44;5.60;;;3.00;;
77400;SDS011;74775;45.476;11.016;2023-12-20T01:42:11;5.70;;;3.10;;
77400;SDS011;74775;45.476;11.016;2023-12-20T01:44:41;5.70;;;3.10;;
77400;SDS011;74775;45.476;11.016;2023-12-20T01:47:08;4.60;;;2.70;;
77400;SDS011;74775;45.476;11.016;2023-12-20T01:49:39;5.60;;;2.40;;
77400;SDS011;74775;45.476;11.016;2023-12-20T01:52:07;5.00;;;2.70;;
77400;SDS011;74775;45.476;11.016;2023-12-20T01:54:38;4.70;;;2.20;;
77400;SDS011;74775;45.476;11.016;2023-12-20T01:57:08;5.20;;;2.30;;
77400;SDS011;74775;45.476;11.016;2023-12-20T01:59:38;5.50;;;2.10;;
77400;SDS011;74775;45.476;11.016;2023-12-20T02:02:10;4.70;;;2.50;;
77400;SDS011;74775;45.476;11.016;2023-12-20T02:04:39;3.90;;;2.10;;
77400;SDS011;74775;45.476;11.016;2023-12-20T02:07:06;5.00;;;3.10;;
77400;SDS011;74775;45.476;11.016;2023-12-20T02:09:41;7.30;;;3.30;;
77400;SDS011;74775;45.476;11.016;2023-12-20T02:12:11;10.30;;;5.60;;
77400;SDS011;74775;45.476;11.016;2023-12-20T02:14:41;10.10;;;4.70;;
77400;SDS011;74775;45.476;11.016;2023-12-20T02:17:15;9.00;;;4.90;;
77400;SDS011;74775;45.476;11.016;2023-12-20T02:19:48;9.90;;;5.60;;
77400;SDS011;74775;45.476;11.016;2023-12-20T02:22:23;11.00;;;5.70;;
77400;SDS011;74775;45.476;11.016;2023-12-20T02:24:50;11.50;;;5.50;;
77400;SDS011;74775;45.476;11.016;2023-12-20T02:27:17;9.60;;;5.30;;
77400;SDS011;74775;45.476;11.016;2023-12-20T02:29:47;10.30;;;5.90;;
77400;SDS011;74775;45.476;11.016;2023-12-20T02:35:05;11.70;;;6.30;;
77400;SDS011;74775;45.476;11.016;2023-12-20T02:37:35;11.30;;;5.70;;
77400;SDS011;74775;45.476;11.016;2023-12-20T02:40:08;11.90;;;6.40;;
77400;SDS011;74775;45.476;11.016;2023-12-20T02:42:35;10.50;;;5.90;;
77400;SDS011;74775;45.476;11.016;2023-12-20T02:45:08;10.40;;;6.00;;
77400;SDS011;74775;45.476;11.016;2023-12-20T02:47:57;10.80;;;5.40;;
77400;SDS011;74775;45.476;11.016;2023-12-20T02:50:24;12.10;;;5.80;;
77400;SDS011;74775;45.476;11.016;2023-12-20T02:53:00;10.50;;;5.40;;
77400;SDS011;74775;45.476;11.016;2023-12-20T02:55:27;11.30;;;5.60;;
77400;SDS011;74775;45.476;11.016;2023-12-20T02:58:02;9.80;;;5.30;;
77400;SDS011;74775;45.476;11.016;2023-12-20T03:00:44;9.70;;;5.40;;
77400;SDS011;74775;45.476;11.016;2023-12-20T03:03:11;14.00;;;5.60;;
77400;SDS011;74775;45.476;11.016;2023-12-20T03:05:38;8.40;;;4.70;;
77400;SDS011;74775;45.476;11.016;2023-12-20T03:08:05;9.50;;;5.10;;
77400;SDS011;74775;45.476;11.016;2023-12-20T03:10:35;9.50;;;4.90;;
77400;SDS011;74775;45.476;11.016;2023-12-20T03:13:02;8.80;;;4.60;;
77400;SDS011;74775;45.476;11.016;2023-12-20T03:15:29;8.10;;;4.80;;
77400;SDS011;74775;45.476;11.016;2023-12-20T03:17:56;10.10;;;4.10;;
77400;SDS011;74775;45.476;11.016;2023-12-20T03:20:25;7.40;;;3.90;;
77400;SDS011;74775;45.476;11.016;2023-12-20T03:22:52;9.30;;;4.10;;
77400;SDS011;74775;45.476;11.016;2023-12-20T03:25:22;9.00;;;4.20;;
77400;SDS011;74775;45.476;11.016;2023-12-20T03:27:52;6.50;;;3.60;;
77400;SDS011;74775;45.476;11.016;2023-12-20T03:30:28;8.70;;;4.10;;
77400;SDS011;74775;45.476;11.016;2023-12-20T03:33:05;8.20;;;4.20;;
77400;SDS011;74775;45.476;11.016;2023-12-20T03:35:34;8.10;;;4.00;;
77400;SDS011;74775;45.476;11.016;2023-12-20T03:38:08;8.60;;;3.80;;
77400;SDS011;74775;45.476;11.016;2023-12-20T03:43:04;5.60;;;2.70;;
77400;SDS011;74775;45.476;11.016;2023-12-20T03:45:31;5.40;;;2.90;;
77400;SDS011;74775;45.476;11.016;2023-12-20T03:48:01;6.40;;;3.30;;
77400;SDS011;74775;45.476;11.016;2023-12-20T03:50:32;3.80;;;2.00;;
77400;SDS011;74775;45.476;11.016;2023-12-20T03:52:58;3.90;;;2.40;;
77400;SDS011;74775;45.476;11.016;2023-12-20T03:55:25;5.80;;;2.70;;
77400;SDS011;74775;45.476;11.016;2023-12-20T03:57:56;6.10;;;2.70;;
77400;SDS011;74775;45.476;11.016;2023-12-20T04:00:23;4.90;;;2.60;;
77400;SDS011;74775;45.476;11.016;2023-12-20T04:02:50;4.80;;;3.20;;
77400;SDS011;74775;45.476;11.016;2023-12-20T04:05:17;4.20;;;2.30;;
77400;SDS011;74775;45.476;11.016;2023-12-20T04:07:44;4.20;;;2.60;;
77400;SDS011;74775;45.476;11.016;2023-12-20T04:10:12;4.80;;;2.50;;
77400;SDS011;74775;45.476;11.016;2023-12-20T04:12:39;5.30;;;2.70;;
77400;SDS011;74775;45.476;11.016;2023-12-20T04:15:09;3.90;;;2.10;;
77400;SDS011;74775;45.476;11.016;2023-12-20T04:17:41;4.50;;;2.00;;
77400;SDS011;74775;45.476;11.016;2023-12-20T04:20:09;4.10;;;2.30;;
77400;SDS011;74775;45.476;11.016;2023-12-20T04:22:38;5.90;;;2.40;;
77400;SDS011;74775;45.476;11.016;2023-12-20T04:25:10;4.00;;;2.20;;
77400;SDS011;74775;45.476;11.016;2023-12-20T04:27:43;6.40;;;2.60;;
77400;SDS011;74775;45.476;11.016;2023-12-20T04:30:11;3.10;;;1.80;;
77400;SDS011;74775;45.476;11.016;2023-12-20T04:32:44;3.70;;;2.30;;
77400;SDS011;74775;45.476;11.016;2023-12-20T04:35:11;5.20;;;2.80;;
77400;SDS011;74775;45.476;11.016;2023-12-20T04:37:38;4.40;;;2.50;;
77400;SDS011;74775;45.476;11.016;2023-12-20T04:40:06;5.60;;;2.50;;
77400;SDS011;74775;45.476;11.016;2023-12-20T04:42:39;4.70;;;2.50;;
77400;SDS011;74775;45.476;11.016;2023-12-20T04:45:06;4.10;;;2.00;;
77400;SDS011;74775;45.476;11.016;2023-12-20T04:47:33;5.80;;;2.60;;
77400;SDS011;74775;45.476;11.016;2023-12-20T04:50:00;4.50;;;2.20;;
77400;SDS011;74775;45.476;11.016;2023-12-20T04:52:29;4.60;;;2.30;;
77400;SDS011;74775;45.476;11.016;2023-12-20T04:54:59;4.60;;;2.40;;
77400;SDS011;74775;45.476;11.016;2023-12-20T04:57:26;5.80;;;2.50;;
77400;SDS011;74775;45.476;11.016;2023-12-20T04:59:53;6.10;;;2.10;;
77400;SDS011;74775;45.476;11.016;2023-12-20T05:02:20;5.90;;;2.10;;
77400;SDS011;74775;45.476;11.016;2023-12-20T05:04:47;4.10;;;2.30;;
77400;SDS011;74775;45.476;11.016;2023-12-20T05:07:14;4.80;;;2.30;;
77400;SDS011;74775;45.476;11.016;2023-12-20T05:09:41;6.50;;;2.40;;
77400;SDS011;74775;45.476;11.016;2023-12-20T05:12:08;5.50;;;2.70;;
77400;SDS011;74775;45.476;11.016;2023-12-20T05:14:35;4.70;;;2.40;;
77400;SDS011;74775;45.476;11.016;2023-12-20T05:17:02;4.60;;;2.50;;
77400;SDS011;74775;45.476;11.016;2023-12-20T05:19:29;3.60;;;2.10;;
77400;SDS011;74775;45.476;11.016;2023-12-20T05:21:57;4.90;;;2.30;;
77400;SDS011;74775;45.476;11.016;2023-12-20T05:24:24;4.20;;;2.50;;
77400;SDS011;74775;45.476;11.016;2023-12-20T05:26:51;5.30;;;2.70;;
77400;SDS011;74775;45.476;11.016;2023-12-20T05:29:19;4.80;;;2.40;;
77400;SDS011;74775;45.476;11.016;2023-12-20T05:31:47;5.80;;;2.40;;
77400;SDS011;74775;45.476;11.016;2023-12-20T05:34:14;4.80;;;2.50;;
77400;SDS011;74775;45.476;11.016;2023-12-20T05:36:41;4.50;;;2.40;;
77400;SDS011;74775;45.476;11.016;2023-12-20T05:39:08;4.80;;;2.70;;
77400;SDS011;74775;45.476;11.016;2023-12-20T05:41:35;4.40;;;2.50;;
77400;SDS011;74775;45.476;11.016;2023-12-20T05:44:02;4.50;;;2.50;;
77400;SDS011;74775;45.476;11.016;2023-12-20T05:46:29;5.20;;;2.50;;
77400;SDS011;74775;45.476;11.016;2023-12-20T05:48:56;5.20;;;2.80;;
77400;SDS011;74775;45.476;11.016;2023-12-20T05:51:23;6.80;;;2.90;;
77400;SDS011;74775;45.476;11.016;2023-12-20T05:53:50;7.60;;;2.90;;
77400;SDS011;74775;45.476;11.016;2023-12-20T05:56:17;7.00;;;3.40;;
77400;SDS011;74775;45.476;11.016;2023-12-20T05:58:44;5.70;;;2.70;;
77400;SDS011;74775;45.476;11.016;2023-12-20T06:01:11;6.10;;;3.00;;
77400;SDS011;74775;45.476;11.016;2023-12-20T06:03:41;6.90;;;3.20;;
77400;SDS011;74775;45.476;11.016;2023-12-20T06:06:08;6.50;;;2.90;;
77400;SDS011;74775;45.476;11.016;2023-12-20T06:08:42;6.60;;;2.90;;
77400;SDS011;74775;45.476;11.016;2023-12-20T06:11:10;7.00;;;3.50;;
77400;SDS011;74775;45.476;11.016;2023-12-20T06:13:37;6.40;;;2.90;;
77400;SDS011;74775;45.476;11.016;2023-12-20T06:16:05;6.10;;;3.40;;
77400;SDS011;74775;45.476;11.016;2023-12-20T06:18:34;6.70;;;3.00;;
77400;SDS011;74775;45.476;11.016;2023-12-20T06:21:01;5.60;;;2.90;;
77400;SDS011;74775;45.476;11.016;2023-12-20T06:23:29;6.70;;;3.40;;
77400;SDS011;74775;45.476;11.016;2023-12-20T06:25:55;8.10;;;3.30;;
77400;SDS011;74775;45.476;11.016;2023-12-20T06:28:22;6.10;;;3.00;;
77400;SDS011;74775;45.476;11.016;2023-12-20T06:30:49;6.60;;;3.20;;
77400;SDS011;74775;45.476;11.016;2023-12-20T06:33:19;8.50;;;3.40;;
77400;SDS011;74775;45.476;11.016;2023-12-20T06:35:50;6.40;;;2.90;;
77400;SDS011;74775;45.476;11.016;2023-12-20T06:38:17;7.00;;;2.80;;
77400;SDS011;74775;45.476;11.016;2023-12-20T06:40:44;7.80;;;3.70;;
77400;SDS011;74775;45.476;11.016;2023-12-20T06:43:12;6.20;;;3.40;;
77400;SDS011;74775;45.476;11.016;2023-12-20T06:45:57;5.80;;;3.30;;
77400;SDS011;74775;45.476;11.016;2023-12-20T06:48:25;8.40;;;3.70;;
77400;SDS011;74775;45.476;11.016;2023-12-20T06:50:52;7.80;;;3.50;;
77400;SDS011;74775;45.476;11.016;2023-12-20T06:53:19;7.10;;;3.60;;
77400;SDS011;74775;45.476;11.016;2023-12-20T06:55:46;6.50;;;3.40;;
77400;SDS011;74775;45.476;11.016;2023-12-20T06:58:13;7.00;;;3.40;;
77400;SDS011;74775;45.476;11.016;2023-12-20T07:00:40;5.50;;;3.00;;
77400;SDS011;74775;45.476;11.016;2023-12-20T07:03:07;5.90;;;3.10;;
77400;SDS011;74775;45.476;11.016;2023-12-20T07:05:34;6.10;;;2.80;;
77400;SDS011;74775;45.476;11.016;2023-12-20T07:08:01;4.80;;;2.40;;
77400;SDS011;74775;45.476;11.016;2023-12-20T07:10:28;6.30;;;3.20;;
77400;SDS011;74775;45.476;11.016;2023-12-20T07:12:55;6.60;;;3.00;;
77400;SDS011;74775;45.476;11.016;2023-12-20T07:15:22;8.40;;;3.30;;
77400;SDS011;74775;45.476;11.016;2023-12-20T07:17:51;5.80;;;3.10;;
77400;SDS011;74775;45.476;11.016;2023-12-20T07:20:18;5.70;;;3.20;;
77400;SDS011;74775;45.476;11.016;2023-12-20T07:22:45;7.30;;;3.30;;
77400;SDS011;74775;45.476;11.016;2023-12-20T07:25:12;8.40;;;4.50;;
77400;SDS011;74775;45.476;11.016;2023-12-20T07:27:39;8.90;;;5.00;;
77400;SDS011;74775;45.476;11.016;2023-12-20T07:30:10;10.40;;;5.20;;
77400;SDS011;74775;45.476;11.016;2023-12-20T07:32:38;7.50;;;4.40;;
77400;SDS011;74775;45.476;11.016;2023-12-20T07:35:05;9.10;;;4.30;;
77400;SDS011;74775;45.476;11.016;2023-12-20T07:37:33;7.90;;;4.50;;
77400;SDS011;74775;45.476;11.016;2023-12-20T07:40:00;7.60;;;4.40;;
77400;SDS011;74775;45.476;11.016;2023-12-20T07:42:27;9.20;;;4.70;;
77400;SDS011;74775;45.476;11.016;2023-12-20T07:44:54;6.40;;;4.10;;
77400;SDS011;74775;45.476;11.016;2023-12-20T07:47:22;7.30;;;4.40;;
77400;SDS011;74775;45.476;11.016;2023-12-20T07:49:48;6.70;;;4.00;;
77400;SDS011;74775;45.476;11.016;2023-12-20T07:52:16;10.30;;;5.00;;
77400;SDS011;74775;45.476;11.016;2023-12-20T07:54:43;10.30;;;4.70;;
77400;SDS011;74775;45.476;11.016;2023-12-20T07:57:10;12.00;;;5.40;;
77400;SDS011;74775;45.476;11.016;2023-12-20T07:59:39;11.20;;;5.70;;
77400;SDS011;74775;45.476;11.016;2023-12-20T08:02:06;11.00;;;5.70;;
77400;SDS011;74775;45.476;11.016;2023-12-20T08:04:33;10.00;;;5.10;;
77400;SDS011;74775;45.476;11.016;2023-12-20T08:07:00;10.20;;;5.50;;
77400;SDS011;74775;45.476;11.016;2023-12-20T08:09:28;10.30;;;5.00;;
77400;SDS011;74775;45.476;11.016;2023-12-20T08:11:55;8.10;;;4.80;;
77400;SDS011;74775;45.476;11.016;2023-12-20T08:14:22;11.60;;;5.80;;
77400;SDS011;74775;45.476;11.016;2023-12-20T08:16:51;12.50;;;6.20;;
77400;SDS011;74775;45.476;11.016;2023-12-20T08:19:18;14.70;;;6.70;;
77400;SDS011;74775;45.476;11.016;2023-12-20T08:21:45;12.30;;;6.30;;
77400;SDS011;74775;45.476;11.016;2023-12-20T08:24:12;12.60;;;5.90;;
77400;SDS011;74775;45.476;11.016;2023-12-20T08:26:39;11.60;;;5.70;;
77400;SDS011;74775;45.476;11.016;2023-12-20T08:29:06;11.20;;;5.20;;
77400;SDS011;74775;45.476;11.016;2023-12-20T08:31:32;12.60;;;5.10;;
77400;SDS011;74775;45.476;11.016;2023-12-20T08:33:59;11.70;;;5.10;;
77400;SDS011;74775;45.476;11.016;2023-12-20T08:36:26;10.10;;;5.90;;
77400;SDS011;74775;45.476;11.016;2023-12-20T08:38:53;11.00;;;5.40;;
77400;SDS011;74775;45.476;11.016;2023-12-20T08:41:21;11.80;;;5.50;;
77400;SDS011;74775;45.476;11.016;2023-12-20T08:43:48;13.90;;;6.40;;
77400;SDS011;74775;45.476;11.016;2023-12-20T08:46:15;13.30;;;6.30;;
77400;SDS011;74775;45.476;11.016;2023-12-20T08:48:42;15.60;;;6.70;;
77400;SDS011;74775;45.476;11.016;2023-12-20T08:51:10;16.60;;;7.70;;
77400;SDS011;74775;45.476;11.016;2023-12-20T08:53:37;17.20;;;7.60;;
77400;SDS011;74775;45.476;11.016;2023-12-20T08:56:04;14.80;;;7.50;;
77400;SDS011;74775;45.476;11.016;2023-12-20T08:58:31;16.20;;;6.90;;
77400;SDS011;74775;45.476;11.016;2023-12-20T09:01:00;12.10;;;5.80;;
77400;SDS011;74775;45.476;11.016;2023-12-20T09:03:27;9.00;;;5.50;;
77400;SDS011;74775;45.476;11.016;2023-12-20T09:05:54;10.50;;;5.60;;
77400;SDS011;74775;45.476;11.016;2023-12-20T09:08:21;11.00;;;5.40;;
77400;SDS011;74775;45.476;11.016;2023-12-20T09:10:48;10.50;;;5.70;;
77400;SDS011;74775;45.476;11.016;2023-12-20T09:13:15;8.20;;;4.60;;
77400;SDS011;74775;45.476;11.016;2023-12-20T09:15:42;9.40;;;5.20;;
77400;SDS011;74775;45.476;11.016;2023-12-20T09:18:09;10.60;;;5.50;;
77400;SDS011;74775;45.476;11.016;2023-12-20T09:20:36;12.90;;;5.50;;
77400;SDS011;74775;45.476;11.016;2023-12-20T09:23:06;11.50;;;5.60;;
77400;SDS011;74775;45.476;11.016;2023-12-20T09:25:33;10.00;;;5.70;;
77400;SDS011;74775;45.476;11.016;2023-12-20T09:28:00;15.00;;;6.20;;
77400;SDS011;74775;45.476;11.016;2023-12-20T09:30:27;15.50;;;7.40;;
77400;SDS011;74775;45.476;11.016;2023-12-20T09:32:55;12.10;;;6.60;;
77400;SDS011;74775;45.476;11.016;2023-12-20T09:35:23;14.00;;;6.60;;
77400;SDS011;74775;45.476;11.016;2023-12-20T09:37:50;13.70;;;7.00;;
77400;SDS011;74775;45.476;11.016;2023-12-20T09:40:18;13.70;;;7.40;;
77400;SDS011;74775;45.476;11.016;2023-12-20T09:42:59;21.10;;;9.60;;
77400;SDS011;74775;45.476;11.016;2023-12-20T09:45:31;16.90;;;8.70;;
77400;SDS011;74775;45.476;11.016;2023-12-20T09:47:58;20.50;;;9.00;;
77400;SDS011;74775;45.476;11.016;2023-12-20T09:50:26;18.40;;;10.90;;
77400;SDS011;74775;45.476;11.016;2023-12-20T09:52:54;17.00;;;9.50;;
77400;SDS011;74775;45.476;11.016;2023-12-20T09:55:25;16.50;;;8.30;;
77400;SDS011;74775;45.476;11.016;2023-12-20T09:57:52;16.00;;;8.20;;
77400;SDS011;74775;45.476;11.016;2023-12-20T10:00:19;15.60;;;9.20;;
77400;SDS011;74775;45.476;11.016;2023-12-20T10:02:59;19.70;;;9.70;;
77400;SDS011;74775;45.476;11.016;2023-12-20T10:05:30;15.90;;;8.90;;
77400;SDS011;74775;45.476;11.016;2023-12-20T10:07:59;14.10;;;8.30;;
77400;SDS011;74775;45.476;11.016;2023-12-20T10:10:28;14.90;;;8.60;;
77400;SDS011;74775;45.476;11.016;2023-12-20T10:13:10;15.70;;;8.00;;
77400;SDS011;74775;45.476;11.016;2023-12-20T10:15:39;15.90;;;9.80;;
77400;SDS011;74775;45.476;11.016;2023-12-20T10:18:09;17.10;;;8.90;;
77400;SDS011;74775;45.476;11.016;2023-12-20T10:20:37;14.60;;;8.60;;
77400;SDS011;74775;45.476;11.016;2023-12-20T10:23:04;18.20;;;9.30;;
77400;SDS011;74775;45.476;11.016;2023-12-20T10:25:31;18.70;;;9.20;;
77400;SDS011;74775;45.476;11.016;2023-12-20T10:28:11;14.30;;;8.70;;
77400;SDS011;74775;45.476;11.016;2023-12-20T10:30:40;16.90;;;11.30;;
77400;SDS011;74775;45.476;11.016;2023-12-20T10:33:07;23.40;;;10.40;;
77400;SDS011;74775;45.476;11.016;2023-12-20T10:35:35;18.90;;;10.70;;
77400;SDS011;74775;45.476;11.016;2023-12-20T10:38:07;14.60;;;9.40;;
77400;SDS011;74775;45.476;11.016;2023-12-20T10:40:36;16.00;;;9.10;;
77400;SDS011;74775;45.476;11.016;2023-12-20T10:43:04;20.20;;;9.30;;
77400;SDS011;74775;45.476;11.016;2023-12-20T10:45:32;14.30;;;9.00;;
77400;SDS011;74775;45.476;11.016;2023-12-20T10:47:59;13.60;;;8.20;;
77400;SDS011;74775;45.476;11.016;2023-12-20T10:50:27;13.30;;;9.00;;
77400;SDS011;74775;45.476;11.016;2023-12-20T10:52:55;18.40;;;10.10;;
77400;SDS011;74775;45.476;11.016;2023-12-20T10:55:23;17.90;;;9.30;;
77400;SDS011;74775;45.476;11.016;2023-12-20T10:57:51;23.90;;;11.80;;
77400;SDS011;74775;45.476;11.016;2023-12-20T11:00:19;25.00;;;12.70;;
77400;SDS011;74775;45.476;11.016;2023-12-20T11:02:48;19.60;;;9.80;;
77400;SDS011;74775;45.476;11.016;2023-12-20T11:10:20;17.20;;;8.40;;
77400;SDS011;74775;45.476;11.016;2023-12-20T11:12:53;18.40;;;9.70;;
77400;SDS011;74775;45.476;11.016;2023-12-20T11:15:22;22.30;;;12.30;;
77400;SDS011;74775;45.476;11.016;2023-12-20T11:17:55;23.30;;;10.30;;
77400;SDS011;74775;45.476;11.016;2023-12-20T11:20:23;18.30;;;10.30;;
77400;SDS011;74775;45.476;11.016;2023-12-20T11:22:52;25.00;;;9.80;;
77400;SDS011;74775;45.476;11.016;2023-12-20T11:25:20;20.00;;;9.50;;
77400;SDS011;74775;45.476;11.016;2023-12-20T11:30:47;16.30;;;8.70;;
77400;SDS011;74775;45.476;11.016;2023-12-20T11:33:52;14.40;;;8.00;;
77400;SDS011;74775;45.476;11.016;2023-12-20T11:36:16;23.60;;;10.60;;
77400;SDS011;74775;45.476;11.016;2023-12-20T11:38:54;21.90;;;10.30;;
77400;SDS011;74775;45.476;11.016;2023-12-20T11:41:25;24.00;;;11.30;;
77400;SDS011;74775;45.476;11.016;2023-12-20T11:43:55;23.20;;;10.60;;
77400;SDS011;74775;45.476;11.016;2023-12-20T11:46:22;20.80;;;10.60;;
77400;SDS011;74775;45.476;11.016;2023-12-20T11:48:50;20.80;;;10.60;;
77400;SDS011;74775;45.476;11.016;2023-12-20T11:51:18;19.70;;;10.40;;
77400;SDS011;74775;45.476;11.016;2023-12-20T11:53:44;15.30;;;10.00;;
77400;SDS011;74775;45.476;11.016;2023-12-20T11:56:11;24.30;;;11.30;;
77400;SDS011;74775;45.476;11.016;2023-12-20T11:58:39;20.20;;;10.30;;
77400;SDS011;74775;45.476;11.016;2023-12-20T12:01:06;24.30;;;12.50;;
77400;SDS011;74775;45.476;11.016;2023-12-20T12:03:35;19.10;;;10.90;;
77400;SDS011;74775;45.476;11.016;2023-12-20T12:06:02;20.90;;;10.40;;
77400;SDS011;74775;45.476;11.016;2023-12-20T12:08:32;22.30;;;9.90;;
77400;SDS011;74775;45.476;11.016;2023-12-20T12:10:59;17.10;;;9.20;;
77400;SDS011;74775;45.476;11.016;2023-12-20T12:13:26;16.60;;;9.90;;
77400;SDS011;74775;45.476;11.016;2023-12-20T12:15:54;20.60;;;10.20;;
77400;SDS011;74775;45.476;11.016;2023-12-20T12:18:21;36.40;;;17.00;;
77400;SDS011;74775;45.476;11.016;2023-12-20T12:20:48;28.20;;;14.10;;
77400;SDS011;74775;45.476;11.016;2023-12-20T12:23:22;34.00;;;15.80;;
77400;SDS011;74775;45.476;11.016;2023-12-20T12:25:49;27.40;;;14.30;;
77400;SDS011;74775;45.476;11.016;2023-12-20T12:28:16;27.00;;;14.30;;
77400;SDS011;74775;45.476;11.016;2023-12-20T12:30:55;25.20;;;13.30;;
77400;SDS011;74775;45.476;11.016;2023-12-20T12:33:24;24.50;;;14.70;;
77400;SDS011;74775;45.476;11.016;2023-12-20T12:35:52;24.10;;;12.70;;
77400;SDS011;74775;45.476;11.016;2023-12-20T12:38:20;24.50;;;13.30;;
77400;SDS011;74775;45.476;11.016;2023-12-20T12:40:48;24.40;;;13.70;;
77400;SDS011;74775;45.476;11.016;2023-12-20T12:43:16;26.50;;;14.50;;
77400;SDS011;74775;45.476;11.016;2023-12-20T12:45:43;31.40;;;13.90;;
77400;SDS011;74775;45.476;11.016;2023-12-20T12:48:10;23.40;;;13.00;;
77400;SDS011;74775;45.476;11.016;2023-12-20T12:50:38;19.30;;;12.30;;
77400;SDS011;74775;45.476;11.016;2023-12-20T12:53:04;22.20;;;11.90;;
77400;SDS011;74775;45.476;11.016;2023-12-20T12:55:32;18.90;;;10.50;;
77400;SDS011;74775;45.476;11.016;2023-12-20T12:57:59;19.50;;;10.80;;
77400;SDS011;74775;45.476;11.016;2023-12-20T13:00:26;18.00;;;10.60;;
77400;SDS011;74775;45.476;11.016;2023-12-20T13:02:54;16.60;;;10.20;;
77400;SDS011;74775;45.476;11.016;2023-12-20T13:05:21;17.10;;;10.70;;
77400;SDS011;74775;45.476;11.016;2023-12-20T13:07:48;21.20;;;11.10;;
77400;SDS011;74775;45.476;11.016;2023-12-20T13:10:16;15.30;;;9.30;;
77400;SDS011;74775;45.476;11.016;2023-12-20T13:12:43;16.40;;;8.80;;
77400;SDS011;74775;45.476;11.016;2023-12-20T13:15:10;17.90;;;10.20;;
77400;SDS011;74775;45.476;11.016;2023-12-20T13:17:37;15.80;;;8.70;;
77400;SDS011;74775;45.476;11.016;2023-12-20T13:20:05;18.10;;;8.80;;
77400;SDS011;74775;45.476;11.016;2023-12-20T13:22:33;15.90;;;9.60;;
77400;SDS011;74775;45.476;11.016;2023-12-20T13:25:00;20.00;;;10.00;;
77400;SDS011;74775;45.476;11.016;2023-12-20T13:27:29;18.10;;;10.30;;
77400;SDS011;74775;45.476;11.016;2023-12-20T13:29:55;18.70;;;9.40;;
77400;SDS011;74775;45.476;11.016;2023-12-20T13:32:22;14.50;;;9.70;;
77400;SDS011;74775;45.476;11.016;2023-12-20T13:34:49;16.70;;;9.60;;
77400;SDS011;74775;45.476;11.016;2023-12-20T13:37:17;16.70;;;9.80;;
77400;SDS011;74775;45.476;11.016;2023-12-20T13:39:45;16.70;;;10.10;;
77400;SDS011;74775;45.476;11.016;2023-12-20T13:42:12;18.30;;;10.60;;
77400;SDS011;74775;45.476;11.016;2023-12-20T13:44:39;16.20;;;9.90;;
77400;SDS011;74775;45.476;11.016;2023-12-20T13:47:06;17.40;;;10.10;;
77400;SDS011;74775;45.476;11.016;2023-12-20T13:49:33;21.40;;;11.90;;
77400;SDS011;74775;45.476;11.016;2023-12-20T13:52:00;19.00;;;11.80;;
77400;SDS011;74775;45.476;11.016;2023-12-20T13:54:27;25.70;;;14.00;;
77400;SDS011;74775;45.476;11.016;2023-12-20T13:56:54;22.20;;;12.50;;
77400;SDS011;74775;45.476;11.016;2023-12-20T13:59:38;19.80;;;11.60;;
77400;SDS011;74775;45.476;11.016;2023-12-20T14:02:04;20.80;;;11.30;;
77400;SDS011;74775;45.476;11.016;2023-12-20T14:04:32;18.60;;;11.10;;
77400;SDS011;74775;45.476;11.016;2023-12-20T14:07:09;17.00;;;10.80;;
77400;SDS011;74775;45.476;11.016;2023-12-20T14:09:38;19.50;;;11.20;;
77400;SDS011;74775;45.476;11.016;2023-12-20T14:12:05;18.50;;;10.10;;
77400;SDS011;74775;45.476;11.016;2023-12-20T14:14:33;16.70;;;10.00;;
77400;SDS011;74775;45.476;11.016;2023-12-20T14:17:00;18.70;;;9.70;;
77400;SDS011;74775;45.476;11.016;2023-12-20T14:19:26;18.10;;;9.90;;
77400;SDS011;74775;45.476;11.016;2023-12-20T14:21:54;17.00;;;10.60;;
77400;SDS011;74775;45.476;11.016;2023-12-20T14:24:21;23.10;;;10.80;;
77400;SDS011;74775;45.476;11.016;2023-12-20T14:26:47;20.20;;;9.80;;
77400;SDS011;74775;45.476;11.016;2023-12-20T14:29:14;16.30;;;10.50;;
77400;SDS011;74775;45.476;11.016;2023-12-20T14:31:41;18.10;;;10.00;;
77400;SDS011;74775;45.476;11.016;2023-12-20T14:34:08;17.60;;;10.50;;
77400;SDS011;74775;45.476;11.016;2023-12-20T14:36:35;19.40;;;10.80;;
77400;SDS011;74775;45.476;11.016;2023-12-20T14:39:03;20.00;;;10.40;;
77400;SDS011;74775;45.476;11.016;2023-12-20T14:41:31;19.80;;;11.60;;
77400;SDS011;74775;45.476;11.016;2023-12-20T14:43:58;24.40;;;12.00;;
77400;SDS011;74775;45.476;11.016;2023-12-20T14:46:27;18.10;;;11.30;;
77400;SDS011;74775;45.476;11.016;2023-12-20T14:48:55;24.80;;;12.10;;